Time;durP1;ratioP1;P1;durP2;ratioP2;P2;SDS_P1;SDS_P2;PMS_P1;PMS_P2;Temp;Humidity;BMP_temperature;BMP_pressure;BME280_temperature;BME280_humidity;BME280_pressure;Samples;Min_cycle;Max_cycle;Signal;HPM_P1;HPM_P2
2024/03/20 00:02:07;;;;;;;34.28;19.80;;;7.80;99.90;;;12.85;92.75;101125.91;5048555;28;20399;-78
2024/03/20 00:04:33;;;;;;;30.60;18.88;;;7.90;99.90;;;12.98;91.82;101129.66;5049976;28;20066;-78
2024/03/20 00:06:59;;;;;;;30.15;19.48;;;8.00;99.90;;;12.99;90.67;101112.97;5049059;28;20048;-78
2024/03/20 00:09:25;;;;;;;31.58;19.05;;;8.10;99.90;;;13.07;89.36;101106.41;5050043;28;20029;-79
2024/03/20 00:11:51;;;;;;;28.85;18.52;;;8.10;99.90;;;13.12;88.56;101120.25;5050728;28;20060;-79
2024/03/20 00:14:17;;;;;;;28.63;18.08;;;8.10;99.90;;;12.95;88.47;101109.00;5046015;28;20385;-79
2024/03/20 00:16:43;;;;;;;26.05;17.45;;;8.20;99.90;;;13.02;88.03;101120.78;5049093;28;20132;-79
2024/03/20 00:19:09;;;;;;;25.23;16.10;;;8.20;99.90;;;13.07;88.14;101122.84;5049679;28;20041;-79
2024/03/20 00:21:35;;;;;;;26.25;17.42;;;8.10;99.90;;;13.03;88.01;101118.88;5049488;28;20029;-79
2024/03/20 00:24:01;;;;;;;24.10;16.63;;;8.10;99.90;;;13.07;87.99;101118.22;5025531;28;20507;-79
2024/03/20 00:26:27;;;;;;;25.83;17.92;;;8.10;99.90;;;13.01;87.41;101119.09;5038604;28;20473;-79
2024/03/20 00:28:53;;;;;;;26.10;17.73;;;8.10;99.90;;;12.95;87.54;101115.34;5021646;28;20025;-79
2024/03/20 00:31:19;;;;;;;27.52;19.27;;;8.10;99.90;;;13.02;88.34;101115.31;5049209;28;20045;-79
2024/03/20 00:33:45;;;;;;;29.73;18.58;;;8.10;99.90;;;13.05;88.69;101119.47;5048475;28;20111;-79
2024/03/20 00:36:10;;;;;;;28.70;18.85;;;8.20;99.90;;;13.06;89.11;101115.69;5050058;28;20063;-79
2024/03/20 00:38:36;;;;;;;30.25;19.08;;;8.20;99.90;;;13.12;88.81;101117.53;5032033;28;20063;-78
2024/03/20 00:41:04;;;;;;;30.75;19.33;;;8.30;99.90;;;13.16;88.46;101104.22;5031631;28;20555;-79
2024/03/20 00:43:30;;;;;;;30.90;18.73;;;8.30;99.90;;;13.06;87.71;101105.56;5050055;28;20099;-78
2024/03/20 00:45:55;;;;;;;31.02;18.77;;;8.40;99.90;;;13.00;89.66;101109.22;5049692;28;20033;-79
2024/03/20 00:48:21;;;;;;;32.13;19.30;;;8.40;99.90;;;13.20;88.79;101110.94;5048404;28;20726;-78
2024/03/20 00:50:47;;;;;;;28.70;17.83;;;8.40;99.90;;;13.25;87.92;101108.34;5048019;28;20041;-78
2024/03/20 00:53:13;;;;;;;29.35;18.75;;;8.40;99.90;;;13.20;87.19;101099.97;5048979;28;20033;-79
2024/03/20 00:55:41;;;;;;;27.02;17.88;;;8.50;99.90;;;13.12;88.16;101108.47;5018209;28;20037;-79
2024/03/20 00:58:10;;;;;;;29.92;18.25;;;8.50;99.90;;;12.72;90.71;101088.50;5048219;28;20567;-79
2024/03/20 01:00:36;;;;;;;30.02;17.52;;;8.60;99.90;;;13.02;89.27;101098.00;5049086;28;20037;-79
2024/03/20 01:03:03;;;;;;;25.95;17.05;;;8.60;99.90;;;13.22;87.50;101081.41;5049079;28;20401;-79
2024/03/20 01:05:28;;;;;;;27.98;18.17;;;8.60;99.90;;;13.16;87.58;101087.78;5049418;28;20033;-80
2024/03/20 01:07:54;;;;;;;29.92;18.30;;;8.60;99.90;;;13.20;87.67;101097.22;5030743;28;20029;-79
2024/03/20 01:10:20;;;;;;;26.05;16.92;;;8.60;99.90;;;13.23;88.37;101091.31;5049324;28;20442;-79
2024/03/20 01:12:47;;;;;;;28.05;17.63;;;8.60;99.90;;;12.85;90.18;101062.94;5048852;28;20048;-81
2024/03/20 01:15:13;;;;;;;26.98;17.90;;;8.70;99.90;;;12.13;98.66;101085.88;5047980;28;20036;-80
2024/03/20 01:17:39;;;;;;;30.15;17.02;;;8.70;99.90;;;12.00;100.00;101072.25;5050079;28;20048;-79
2024/03/20 01:20:06;;;;;;;26.90;16.52;;;8.70;99.90;;;12.04;100.00;101071.59;5048986;28;20029;-79
2024/03/20 01:22:36;;;;;;;28.13;15.97;;;8.80;99.90;;;12.77;100.00;101074.19;5049344;28;20033;-80
2024/03/20 01:25:07;;;;;;;29.17;16.42;;;8.90;99.90;;;13.33;95.54;101074.38;5049340;28;20037;-80
2024/03/20 01:27:33;;;;;;;27.95;16.17;;;9.00;99.90;;;13.59;90.54;101064.22;5049814;28;20033;-81
2024/03/20 01:29:59;;;;;;;25.90;16.05;;;9.10;99.90;;;13.38;87.81;101058.94;5052228;28;20120;-80
2024/03/20 01:32:25;;;;;;;27.67;15.77;;;9.10;99.90;;;13.86;86.01;101073.03;5052855;28;20041;-80
2024/03/20 01:34:51;;;;;;;28.75;15.88;;;9.10;99.90;;;13.79;84.92;101064.88;5053277;28;20043;-80
2024/03/20 01:37:17;;;;;;;29.05;15.75;;;9.10;99.90;;;13.71;83.77;101067.91;5053085;28;20037;-80
2024/03/20 01:39:43;;;;;;;27.27;15.13;;;9.10;99.90;;;13.36;86.13;101061.06;5051625;28;20033;-80
2024/03/20 01:42:09;;;;;;;30.00;16.52;;;9.20;99.90;;;13.47;86.41;101056.78;5052796;28;20048;-80
2024/03/20 01:44:34;;;;;;;30.08;16.10;;;9.30;99.90;;;13.50;85.71;101071.91;5051920;28;20067;-80
2024/03/20 01:47:02;;;;;;;27.42;15.35;;;9.40;99.90;;;13.89;82.06;101031.44;5053279;28;20041;-80
2024/03/20 01:49:29;;;;;;;;;;;9.40;99.90;;;13.62;81.38;101064.63;5052326;28;20076;-79
2024/03/20 01:51:55;;;;;;;29.52;15.93;;;9.40;99.90;;;13.90;82.34;101071.50;5053498;28;19963;-80
2024/03/20 01:54:22;;;;;;;24.85;14.32;;;9.40;99.90;;;14.17;79.89;101060.19;5052341;28;20060;-79
2024/03/20 01:56:48;;;;;;;25.98;14.85;;;9.40;99.90;;;14.24;78.58;101060.94;5022466;28;20033;-80
2024/03/20 01:59:13;;;;;;;29.02;15.32;;;9.30;99.90;;;13.95;80.38;101063.41;5052221;28;20033;-79
2024/03/20 02:01:39;;;;;;;24.75;14.57;;;9.20;99.90;;;14.00;80.90;101064.63;5052067;28;20411;-79
2024/03/20 02:04:05;;;;;;;26.85;15.45;;;9.10;99.90;;;13.94;81.92;101067.22;5051361;28;20044;-79
2024/03/20 02:06:31;;;;;;;27.30;15.88;;;9.10;99.90;;;13.84;83.49;101066.94;5052319;28;20025;-80
2024/03/20 02:08:59;;;;;;;26.17;15.95;;;9.00;99.90;;;13.23;87.95;101058.44;5052889;28;20041;-79
2024/03/20 02:11:28;;;;;;;29.73;16.60;;;8.90;99.90;;;13.15;92.11;101075.16;5029721;28;20033;-80
2024/03/20 02:13:57;;;;;;;31.25;17.92;;;8.70;99.90;;;13.09;93.44;101075.00;5050335;28;20143;-79
2024/03/20 02:16:25;;;;;;;29.27;16.45;;;8.60;99.90;;;12.82;97.64;101081.75;5018131;28;20037;-79
2024/03/20 02:18:52;;;;;;;;;;;8.60;99.90;;;12.95;95.82;101076.16;5051414;28;20037;-79
2024/03/20 02:21:21;;;;;;;30.20;16.23;;;8.50;99.90;;;13.11;95.91;101077.50;5052393;28;20050;-79
2024/03/20 02:23:51;;;;;;;30.77;17.08;;;8.60;99.90;;;13.34;91.42;101079.63;5053008;28;20476;-77
2024/03/20 02:26:18;;;;;;;32.78;16.63;;;8.60;99.90;;;13.60;87.84;101071.41;5051183;28;20503;-78
2024/03/20 02:28:46;;;;;;;31.13;15.88;;;8.70;99.90;;;13.24;88.84;101071.06;5052208;28;20099;-78
2024/03/20 02:31:13;;;;;;;28.98;16.02;;;8.80;99.90;;;12.87;91.14;101070.94;5047933;28;20250;-78
2024/03/20 02:33:40;;;;;;;30.13;16.13;;;8.80;99.90;;;13.21;89.84;101063.28;5051491;28;20049;-78
2024/03/20 02:36:06;;;;;;;30.15;15.93;;;8.90;99.90;;;13.40;87.67;101057.88;5051919;28;20547;-78
2024/03/20 02:38:35;;;;;;;29.58;15.77;;;8.90;99.90;;;13.52;85.21;101064.28;5052026;28;20167;-78
2024/03/20 02:41:01;;;;;;;30.75;16.25;;;8.80;99.90;;;13.22;87.23;101059.50;5051204;28;20040;-78
2024/03/20 02:43:27;;;;;;;33.65;15.80;;;8.80;99.90;;;13.21;87.27;101061.41;5051544;28;20041;-78
2024/03/20 02:45:56;;;;;;;29.52;16.08;;;8.70;99.90;;;13.21;89.23;101068.78;5050996;28;20103;-78
2024/03/20 02:48:22;;;;;;;26.73;15.30;;;8.70;99.90;;;13.28;88.78;101064.09;5051390;28;20095;-78
2024/03/20 02:50:48;;;;;;;33.15;16.75;;;8.60;99.90;;;12.85;90.16;101071.16;5034555;28;20037;-78
2024/03/20 02:53:14;;;;;;;29.55;16.02;;;8.60;99.90;;;12.52;93.73;101070.34;5050919;28;20444;-78
2024/03/20 02:55:42;;;;;;;32.00;16.90;;;8.60;99.90;;;12.35;96.47;101056.34;5051513;28;20076;-78
2024/03/20 02:58:11;;;;;;;31.02;16.27;;;8.70;99.90;;;12.33;97.97;101068.53;5050189;28;20518;-78
2024/03/20 03:00:38;;;;;;;30.83;16.20;;;8.70;99.90;;;12.21;98.67;101047.38;5047165;28;20117;-78
2024/03/20 03:03:04;;;;;;;35.97;16.95;;;8.70;99.90;;;12.29;97.80;101064.56;5051519;28;20095;-79
2024/03/20 03:05:30;;;;;;;31.65;16.05;;;8.70;99.90;;;12.65;94.33;101052.16;5051755;28;20036;-77
2024/03/20 03:07:56;;;;;;;31.67;16.42;;;8.80;99.90;;;13.03;91.26;101056.72;5051422;28;20033;-78
2024/03/20 03:10:23;;;;;;;29.30;16.13;;;9.00;99.90;;;12.94;89.75;101052.56;5051769;28;20028;-79
2024/03/20 03:12:51;;;;;;;29.23;15.20;;;9.00;99.90;;;12.95;91.23;101056.97;5032378;28;20437;-79
2024/03/20 03:15:18;;;;;;;27.75;16.00;;;9.00;99.90;;;12.97;91.86;101063.06;5044727;28;20039;-79
2024/03/20 03:17:52;;;;;;;29.30;15.80;;;8.90;99.90;;;12.60;95.26;101050.09;5050426;28;20536;-78
2024/03/20 03:20:19;;;;;;;30.55;15.98;;;8.90;99.90;;;12.47;96.03;101061.09;5047924;28;20282;-78
2024/03/20 03:22:46;;;;;;;29.30;15.93;;;8.80;99.90;;;12.39;96.62;101055.91;5050220;28;20045;-78
2024/03/20 03:25:12;;;;;;;32.05;16.67;;;8.70;99.90;;;12.55;96.00;101060.00;5051368;28;20041;-78
2024/03/20 03:27:39;;;;;;;27.48;14.70;;;8.70;99.90;;;12.61;94.28;101042.69;5050693;28;20361;-78
2024/03/20 03:30:08;;;;;;;30.33;15.13;;;8.70;99.90;;;12.74;93.90;101049.97;5050631;28;20118;-78
2024/03/20 03:32:34;;;;;;;30.98;15.25;;;8.70;99.90;;;12.62;91.91;101049.84;5051639;28;20037;-78
2024/03/20 03:35:01;;;;;;;29.05;15.88;;;8.70;99.90;;;13.06;89.13;101053.53;5050511;28;20126;-78
2024/03/20 03:37:26;;;;;;;27.23;14.75;;;8.70;99.90;;;12.80;86.82;101046.34;5051466;28;20048;-78
2024/03/20 03:39:53;;;;;;;26.13;15.05;;;8.70;99.90;;;12.76;88.31;101048.72;5049593;28;20038;-79
2024/03/20 03:42:20;;;;;;;29.50;14.60;;;8.70;99.90;;;12.73;89.16;101049.16;5050588;28;20163;-79
2024/03/20 03:44:46;;;;;;;28.20;14.57;;;8.80;99.90;;;13.12;86.22;101048.22;5050174;28;20128;-78
2024/03/20 03:47:12;;;;;;;26.90;14.43;;;8.90;99.90;;;13.18;82.53;101044.56;5050748;28;20040;-79
2024/03/20 03:49:37;;;;;;;27.67;14.27;;;9.00;99.90;;;13.21;82.53;101053.19;5050619;28;20059;-79
2024/03/20 03:52:03;;;;;;;28.77;14.07;;;9.00;99.90;;;12.95;83.97;101060.56;5050020;28;20484;-78
2024/03/20 03:54:29;;;;;;;28.30;15.02;;;9.10;99.90;;;13.49;82.08;101057.38;5050509;28;20033;-79
2024/03/20 03:56:56;;;;;;;24.80;13.35;;;9.30;99.90;;;13.60;80.54;101053.06;5024260;28;20045;-79
2024/03/20 03:59:21;;;;;;;22.65;13.63;;;9.40;99.90;;;13.85;77.58;101032.97;5047031;28;20075;-79
2024/03/20 04:01:47;;;;;;;25.20;14.02;;;9.50;99.90;;;14.16;75.31;101035.72;5050650;28;20427;-79
2024/03/20 04:04:13;;;;;;;28.15;14.63;;;9.50;99.90;;;14.00;75.60;101037.19;5050341;28;20052;-79
2024/03/20 04:06:41;;;;;;;24.77;13.25;;;9.60;99.90;;;14.12;75.10;101051.81;5049760;28;20033;-78
2024/03/20 04:09:07;;;;;;;27.98;14.02;;;9.60;99.90;;;13.96;75.49;101050.56;5050452;28;20032;-79
2024/03/20 04:11:34;;;;;;;26.48;14.30;;;9.60;99.90;;;14.07;74.80;101048.94;5026574;28;20036;-79
2024/03/20 04:14:00;;;;;;;22.73;13.30;;;9.60;99.90;;;13.70;76.84;101054.41;5047191;28;20045;-78
2024/03/20 04:16:26;;;;;;;23.38;12.63;;;9.60;99.90;;;13.52;78.48;101058.81;5046626;28;20028;-78
2024/03/20 04:18:51;;;;;;;27.70;13.80;;;9.60;99.90;;;13.39;80.28;101062.50;5050688;28;20048;-79
2024/03/20 04:21:17;;;;;;;27.08;13.82;;;9.60;99.90;;;13.33;81.40;101061.50;5031556;28;20033;-79
2024/03/20 04:23:43;;;;;;;28.27;14.57;;;9.60;99.90;;;13.14;81.85;101066.13;5049337;28;20056;-79
2024/03/20 04:26:09;;;;;;;22.42;13.20;;;9.60;99.90;;;13.65;79.65;101060.56;5049486;28;20060;-79
2024/03/20 04:28:35;;;;;;;28.65;14.57;;;9.60;99.90;;;13.36;79.31;101055.59;5049406;28;20045;-78
2024/03/20 04:31:01;;;;;;;23.63;13.48;;;9.70;99.90;;;13.43;78.96;101049.22;5049831;28;20057;-78
2024/03/20 04:33:27;;;;;;;24.52;12.75;;;9.70;99.90;;;13.57;78.36;101060.88;5049196;28;20095;-79
2024/03/20 04:35:53;;;;;;;22.73;12.80;;;9.70;99.90;;;13.55;79.08;101046.56;5049462;28;20040;-79
2024/03/20 04:38:18;;;;;;;24.17;13.18;;;9.70;99.90;;;13.60;79.57;101063.16;5048968;28;20037;-79
2024/03/20 04:40:44;;;;;;;26.27;14.23;;;9.70;99.90;;;13.47;79.41;101062.25;5049857;28;20103;-79
2024/03/20 04:43:10;;;;;;;27.42;14.23;;;9.70;99.90;;;13.21;80.27;101064.16;5050274;28;20047;-78
2024/03/20 04:45:35;;;;;;;23.35;12.73;;;9.80;99.90;;;13.20;80.84;101061.63;5049226;28;20060;-78
2024/03/20 04:48:01;;;;;;;26.08;13.43;;;9.80;99.90;;;13.42;79.72;101056.59;5049629;28;20055;-78
2024/03/20 04:50:27;;;;;;;26.05;13.80;;;9.90;99.90;;;13.47;79.14;101061.41;5049703;28;20087;-79
2024/03/20 04:52:52;;;;;;;24.52;13.98;;;9.90;99.90;;;13.72;77.86;101055.88;5048227;28;20072;-78
2024/03/20 04:55:18;;;;;;;24.40;13.25;;;9.90;99.90;;;13.92;77.00;101057.53;5049124;28;20118;-78
2024/03/20 04:57:44;;;;;;;24.35;12.80;;;9.90;99.90;;;13.87;75.22;101050.00;5049319;28;20047;-78
2024/03/20 05:00:15;;;;;;;24.75;14.02;;;9.90;99.90;;;13.81;75.73;101054.50;5049592;28;20051;-78
2024/03/20 05:02:42;;;;;;;23.23;13.60;;;10.00;99.90;;;14.06;75.28;101055.50;5047119;28;20045;-78
2024/03/20 05:05:09;;;;;;;23.55;13.50;;;10.10;99.90;;;13.70;76.13;101029.75;5025578;28;20037;-78
2024/03/20 05:07:36;;;;;;;25.95;13.05;;;10.10;99.90;;;13.83;74.62;101058.91;5045104;28;20037;-80
2024/03/20 05:10:03;;;;;;;24.48;13.18;;;10.20;99.90;;;13.90;74.78;101060.53;5022744;28;20485;-79
2024/03/20 05:12:28;;;;;;;24.17;12.98;;;10.30;99.90;;;14.01;74.16;101058.91;5053852;28;20079;-79
2024/03/20 05:14:54;;;;;;;24.15;13.25;;;10.30;99.90;;;13.85;74.20;101030.22;5053032;28;20048;-79
2024/03/20 05:17:20;;;;;;;22.50;12.60;;;10.30;99.90;;;14.10;73.07;101062.19;5054016;28;20086;-79
2024/03/20 05:19:46;;;;;;;22.90;12.65;;;10.30;99.90;;;14.35;71.82;101055.75;5053494;28;20235;-79
2024/03/20 05:22:11;;;;;;;21.60;12.45;;;10.30;99.90;;;14.43;70.87;101054.56;5034981;28;20033;-80
2024/03/20 05:24:37;;;;;;;23.80;12.93;;;10.40;99.90;;;14.22;71.24;101060.34;5054242;28;20054;-79
2024/03/20 05:27:05;;;;;;;25.45;13.20;;;10.40;99.90;;;14.51;71.00;101060.56;5052231;28;20048;-77
2024/03/20 05:29:31;;;;;;;;;;;10.40;99.90;;;14.67;69.40;101064.56;5053365;28;20040;-76
2024/03/20 05:31:56;;;;;;;23.85;13.40;;;10.40;99.90;;;14.75;68.95;101065.34;5052873;28;19959;-76
2024/03/20 05:34:23;;;;;;;24.52;13.20;;;10.40;99.90;;;14.65;67.81;101050.22;5034304;28;20036;-79
2024/03/20 05:36:48;;;;;;;25.48;13.82;;;10.40;99.90;;;14.94;66.82;101060.63;5050313;28;21477;-78
2024/03/20 05:39:14;;;;;;;23.92;13.40;;;10.40;99.90;;;14.78;67.74;101068.44;5053051;28;20033;-77
2024/03/20 05:41:40;;;;;;;24.98;13.35;;;10.40;99.90;;;14.79;68.34;101061.06;5047108;28;20048;-78
2024/03/20 05:44:05;;;;;;;22.83;13.20;;;10.40;99.90;;;14.84;67.80;101074.06;5052324;28;20388;-78
2024/03/20 05:46:33;;;;;;;27.23;13.52;;;10.40;99.90;;;15.19;66.26;101071.38;5032139;28;20032;-78
2024/03/20 05:48:59;;;;;;;30.08;14.85;;;10.40;99.90;;;14.95;66.40;101071.34;5051965;28;20116;-78
2024/03/20 05:51:26;;;;;;;27.38;13.90;;;10.40;99.90;;;14.93;67.11;101073.50;5034258;28;20485;-78
2024/03/20 05:53:51;;;;;;;24.45;13.18;;;10.40;99.90;;;14.52;68.87;101078.72;5055050;28;20045;-78
2024/03/20 05:56:18;;;;;;;26.30;12.52;;;10.50;99.90;;;14.45;70.37;101088.09;5055268;28;20040;-77
2024/03/20 05:58:44;;;;;;;24.38;14.00;;;10.50;99.90;;;14.57;69.48;101089.00;5053622;28;20134;-77
2024/03/20 06:01:10;;;;;;;28.30;14.00;;;10.50;99.90;;;14.50;69.38;101091.84;5042999;28;20060;-77
2024/03/20 06:03:36;;;;;;;25.65;14.02;;;10.50;99.90;;;14.11;70.14;101077.59;5027304;28;20044;-76
2024/03/20 06:06:03;;;;;;;22.02;12.38;;;10.60;99.90;;;14.50;70.05;101100.06;5052474;28;20029;-77
2024/03/20 06:08:28;;;;;;;25.33;13.80;;;10.60;99.90;;;14.63;68.81;101084.50;5052149;28;20036;-78
2024/03/20 06:10:57;;;;;;;25.55;13.55;;;10.50;99.90;;;14.31;70.33;101096.53;5052173;28;20136;-76
2024/03/20 06:13:23;;;;;;;25.60;13.15;;;10.60;99.90;;;14.37;70.37;101092.84;5052452;28;20029;-76
2024/03/20 06:15:49;;;;;;;22.38;12.88;;;10.60;99.90;;;14.53;69.24;101091.38;5036563;28;20507;-77
2024/03/20 06:18:15;;;;;;;19.98;12.32;;;10.60;99.90;;;14.64;69.35;101086.19;5052371;28;20041;-77
2024/03/20 06:20:40;;;;;;;21.58;12.30;;;10.60;99.90;;;14.64;69.32;101102.66;5052770;28;20123;-75
2024/03/20 06:23:06;;;;;;;24.55;13.40;;;10.50;99.90;;;14.08;70.50;101102.75;5044296;28;20048;-77
2024/03/20 06:25:32;;;;;;;25.88;12.73;;;10.50;99.90;;;14.45;70.40;101093.59;5051947;28;20345;-75
2024/03/20 06:27:58;;;;;;;23.00;12.80;;;10.50;99.90;;;14.42;70.38;101096.81;5032086;28;20393;-77
2024/03/20 06:30:25;;;;;;;25.17;13.20;;;10.50;99.90;;;14.60;68.94;101101.44;5052273;28;20041;-77
2024/03/20 06:32:51;;;;;;;20.42;12.48;;;10.60;99.90;;;14.39;69.41;101100.88;5052362;28;20063;-77
2024/03/20 06:35:17;;;;;;;24.35;12.93;;;10.70;99.90;;;14.23;71.30;101107.84;5052181;28;20404;-77
2024/03/20 06:37:43;;;;;;;21.60;12.45;;;10.60;99.90;;;14.07;73.42;101101.06;5051408;28;20405;-76
2024/03/20 06:40:13;;;;;;;24.80;12.45;;;10.60;99.90;;;14.34;72.58;101106.22;5051720;28;20029;-75
2024/03/20 06:42:39;;;;;;;22.00;12.23;;;10.70;99.90;;;14.38;72.86;101104.69;5051140;28;20029;-76
2024/03/20 06:45:06;;;;;;;22.25;12.60;;;10.80;99.90;;;14.49;72.99;101098.41;5049419;28;20120;-76
2024/03/20 06:47:31;;;;;;;22.02;12.73;;;10.90;99.90;;;14.34;72.65;101098.81;5050280;28;20040;-76
2024/03/20 06:49:58;;;;;;;23.27;12.57;;;11.00;99.90;;;14.32;73.08;101100.09;5049825;28;20040;-77
2024/03/20 06:52:24;;;;;;;23.08;12.40;;;11.00;99.90;;;14.41;74.25;101106.13;5050772;28;20365;-77
2024/03/20 06:54:51;;;;;;;21.80;12.23;;;11.00;99.90;;;14.59;75.39;101102.53;5049146;28;20032;-75
2024/03/20 06:57:18;;;;;;;22.27;12.43;;;11.10;99.90;;;14.76;73.01;101089.81;5029349;28;20504;-76
2024/03/20 06:59:45;;;;;;;21.35;12.50;;;11.20;99.90;;;14.81;72.79;101095.44;5050144;28;20109;-77
2024/03/20 07:02:11;;;;;;;17.33;11.35;;;11.30;99.90;;;14.80;71.01;101090.19;5051697;28;20037;-77
2024/03/20 07:04:37;;;;;;;22.45;12.68;;;11.40;99.90;;;14.95;69.70;101100.75;5051127;28;20064;-75
2024/03/20 07:07:03;;;;;;;23.90;11.77;;;11.40;99.90;;;15.34;69.57;101108.56;5050566;28;20040;-78
2024/03/20 07:09:31;;;;;;;21.90;11.60;;;11.40;99.90;;;15.65;65.37;101106.53;5045179;28;20033;-77
2024/03/20 07:12:01;;;;;;;19.25;11.20;;;11.50;99.90;;;15.70;64.75;101086.59;5043169;28;20471;-79
2024/03/20 07:14:29;;;;;;;18.50;11.00;;;11.60;99.90;;;15.94;64.54;101098.41;5051265;28;20064;-80
2024/03/20 07:16:56;;;;;;;21.98;12.80;;;11.70;99.90;;;15.98;62.50;101094.09;5050683;28;20037;-77
2024/03/20 07:19:22;;;;;;;24.15;12.90;;;11.80;99.90;;;16.15;62.26;101099.66;5051742;28;20033;-78
2024/03/20 07:21:48;;;;;;;22.23;11.73;;;11.90;99.90;;;15.74;63.03;101083.09;5049770;28;20029;-77
2024/03/20 07:24:15;;;;;;;20.15;11.73;;;12.10;99.90;;;15.27;63.31;101083.94;5050718;28;20044;-76
2024/03/20 07:26:41;;;;;;;17.05;10.98;;;12.10;99.90;;;15.55;63.69;101098.88;5049976;28;20071;-77
2024/03/20 07:29:09;;;;;;;21.08;11.10;;;12.20;99.90;;;15.67;62.91;101105.25;5031082;28;20072;-77
2024/03/20 07:31:39;;;;;;;18.95;10.50;;;12.30;99.90;;;16.20;60.92;101094.31;5045613;28;20036;-77
2024/03/20 07:34:06;;;;;;;17.60;10.82;;;12.60;99.90;;;16.07;61.21;101083.56;5050467;28;20037;-76
2024/03/20 07:36:33;;;;;;;19.08;11.02;;;12.70;99.90;;;16.68;60.22;101088.59;5049308;28;20041;-80
2024/03/20 07:39:01;;;;;;;17.60;10.73;;;;;;;16.95;57.96;101087.94;5050067;28;20052;-79
2024/03/20 07:41:28;;;;;;;19.45;11.10;;;;;;;17.20;58.00;101087.59;5050092;28;20330;-78
2024/03/20 07:43:54;;;;;;;18.30;11.10;;;;;;;17.05;57.22;101085.44;5048615;28;20073;-78
2024/03/20 07:46:20;;;;;;;22.85;11.40;;;;;;;17.39;57.36;101093.69;5049335;28;20105;-79
2024/03/20 07:48:47;;;;;;;18.23;11.38;;;;;;;16.96;58.74;101096.00;5048039;28;20037;-78
2024/03/20 07:51:15;;;;;;;20.02;10.55;;;;;;;17.20;59.42;101106.91;5049639;28;20032;-79
2024/03/20 07:53:44;;;;;;;17.48;11.15;;;;;;;17.14;58.55;101104.28;5015533;28;20076;-79
2024/03/20 07:56:11;;;;;;;23.92;11.30;;;;;;;17.62;55.98;101091.81;5050125;28;20040;-77
2024/03/20 07:58:37;;;;;;;20.08;10.25;;;;;;;18.09;53.82;101082.25;5048124;28;20131;-77
2024/03/20 08:01:04;;;;;;;34.67;14.70;;;;;;;18.17;53.35;101091.19;5029734;28;20063;-78
2024/03/20 08:03:31;;;;;;;22.25;10.90;;;;;;;17.96;53.17;101085.38;5048280;28;20442;-78
2024/03/20 08:06:00;;;;;;;16.80;9.87;;;;;;;18.22;53.23;101102.31;5048273;28;20041;-78
2024/03/20 08:08:26;;;;;;;18.83;10.63;;;;;;;18.32;52.65;101090.56;5047597;28;20591;-78
2024/03/20 08:10:52;;;;;;;21.13;11.00;;;;;;;18.32;51.50;101090.56;5048301;28;20044;-78
2024/03/20 08:13:18;;;;;;;17.42;10.43;;;;;;;18.47;51.95;101095.41;5049171;28;20040;-79
2024/03/20 08:15:44;;;;;;;16.70;9.48;;;;;;;18.34;51.58;101091.13;5049871;28;20512;-80
2024/03/20 08:18:10;;;;;;;19.65;10.88;;;;;;;18.13;51.75;101095.53;5050575;28;20033;-79
2024/03/20 08:20:39;;;;;;;30.02;11.95;;;;;;;18.25;52.12;101096.25;5052830;28;20452;-80
2024/03/20 08:23:05;;;;;;;23.92;11.43;;;;;;;18.14;52.64;101102.75;5050491;28;20041;-79
2024/03/20 08:25:32;;;;;;;15.65;9.98;;;;;;;18.02;52.38;101108.38;5050145;28;20029;-80
2024/03/20 08:27:58;;;;;;;19.05;10.90;;;;;;;18.39;51.85;101105.81;5047994;28;20513;-81
2024/03/20 08:30:24;;;;;;;18.85;10.18;;;;;;;18.31;51.70;101099.94;5031710;28;20028;-80
2024/03/20 08:32:51;;;;;;;16.15;9.55;;;;;;;18.37;52.14;101105.22;5031945;28;20481;-80
2024/03/20 08:35:18;;;;;;;16.88;9.57;;;;;;;17.98;52.86;101103.34;5049799;28;20033;-78
2024/03/20 08:37:44;;;;;;;16.67;10.23;;;;;;;18.82;51.82;101113.44;5048955;28;20238;-79
2024/03/20 08:40:11;;;;;;;15.77;9.68;;;;;;;18.97;50.51;101102.56;5049215;28;20044;-80
2024/03/20 08:42:38;;;;;;;16.45;9.77;;;;;;;18.56;50.78;101107.66;5031172;28;20020;-82
2024/03/20 08:45:05;;;;;;;16.40;9.48;;;;;;;18.74;50.27;101087.13;5048367;28;20091;-79
2024/03/20 08:47:32;;;;;;;17.02;9.82;;;;;;;18.48;51.10;101100.66;5049726;28;20132;-78
2024/03/20 08:49:58;;;;;;;16.13;9.23;;;;;;;18.53;50.84;101103.47;5048777;28;20366;-82
2024/03/20 08:52:25;;;;;;;15.25;8.68;;;;;;;18.24;51.36;101100.94;5049769;28;20033;-75
2024/03/20 08:54:51;;;;;;;14.75;8.93;;;;;;;18.13;51.96;101114.88;5030885;28;20531;-76
2024/03/20 08:57:18;;;;;;;17.77;10.23;;;;;;;18.46;51.87;101116.66;5031898;28;20648;-78
2024/03/20 08:59:45;;;;;;;18.63;9.40;;;;;;;18.64;51.56;101112.72;5049250;28;20045;-77
2024/03/20 09:02:12;;;;;;;15.18;8.80;;;;;;;19.36;50.60;101112.59;5049296;28;20302;-78
2024/03/20 09:04:41;;;;;;;15.75;9.68;;;;;;;18.74;50.34;101092.66;5048514;28;20041;-78
2024/03/20 09:07:07;;;;;;;17.63;9.50;;;;;;;18.09;52.52;101104.34;5049241;28;20048;-76
2024/03/20 09:09:33;;;;;;;17.08;9.98;;;;;;;18.83;53.04;101126.19;5049161;28;20110;-79
2024/03/20 09:12:00;;;;;;;16.60;9.85;;;;;;;18.90;51.13;101112.16;5030501;28;20124;-79
2024/03/20 09:14:26;;;;;;;17.42;9.57;;;;;;;18.69;51.50;101118.28;5044864;28;20522;-78
2024/03/20 09:16:53;;;;;;;14.52;9.07;;;;;;;19.10;51.07;101114.28;5048355;28;20051;-80
2024/03/20 09:19:19;;;;;;;15.75;9.63;;;;;;;19.59;49.64;101106.94;5048432;28;20092;-79
2024/03/20 09:21:46;;;;;;;16.30;9.65;;;;;;;19.13;49.75;101088.06;5048976;28;20037;-80
2024/03/20 09:24:16;;;;;;;17.48;9.23;;;;;;;18.50;51.02;101089.38;5030599;28;20045;-80
2024/03/20 09:26:43;;;;;;;14.45;9.38;;;;;;;18.79;50.73;101100.97;5045512;28;20044;-79
2024/03/20 09:29:12;;;;;;;15.27;9.43;;;;;;;19.29;50.53;101106.44;5049314;28;20042;-79
2024/03/20 09:31:38;;;;;;;16.05;9.63;;;;;;;18.96;50.47;101095.34;5045031;28;20488;-79
2024/03/20 09:34:04;;;;;;;17.25;8.75;;;;;;;19.31;49.63;101087.63;5030461;28;20025;-78
2024/03/20 09:36:30;;;;;;;12.88;8.27;;;;;;;19.82;50.80;101105.66;5048505;28;20033;-78
2024/03/20 09:38:57;;;;;;;13.70;8.20;;;;;;;20.32;46.72;101072.97;5048932;28;20119;-77
2024/03/20 09:41:23;;;;;;;14.85;8.07;;;;;;;20.02;46.79;101063.44;5048594;28;20033;-78
2024/03/20 09:43:54;;;;;;;13.68;7.57;;;;;;;20.43;47.09;101076.63;5048722;28;20895;-81
2024/03/20 09:46:21;;;;;;;15.10;7.53;;;;;;;20.51;45.40;101067.75;5048990;28;20526;-78
2024/03/20 09:48:52;;;;;;;12.10;7.53;;;;;;;21.28;44.28;101060.63;5047958;28;20052;-77
2024/03/20 09:51:19;;;;;;;14.77;7.70;;;;;;;21.32;43.85;101047.00;5024075;28;20056;-78
2024/03/20 09:53:50;;;;;;;14.97;8.33;;;;;;;21.27;43.60;101045.91;5052619;28;20037;-77
2024/03/20 09:56:18;;;;;;;13.32;7.72;;;;;;;22.03;42.75;101055.44;5033784;28;20047;-78
2024/03/20 09:58:45;;;;;;;15.02;8.40;;;;;;;22.88;41.97;101061.06;5052054;28;20061;-79
2024/03/20 10:01:16;;;;;;;12.15;7.75;;;;;;;23.11;40.43;101035.28;5052230;28;20040;-78
2024/03/20 10:03:45;;;;;;;14.65;8.48;;;;;;;22.42;41.32;101024.94;5052209;28;20132;-79
2024/03/20 10:06:12;;;;;;;12.85;8.02;;;;;;;22.72;41.37;101044.50;5048611;28;20037;-78
2024/03/20 10:08:38;;;;;;;11.90;8.38;;;;;;;22.08;42.09;101042.34;5052641;28;20028;-79
2024/03/20 10:11:07;;;;;;;13.02;7.53;;;;;;;22.67;42.18;101056.47;5051463;28;20075;-80
2024/03/20 10:13:34;;;;;;;12.20;7.90;;;;;;;22.82;40.84;101032.47;5033730;28;20116;-78
2024/03/20 10:16:12;;;;;;;10.93;6.70;;;;;;;23.45;39.94;101032.75;5030957;28;20064;-79
2024/03/20 10:18:39;;;;;;;10.82;6.82;;;;;;;23.66;39.23;101019.41;5052081;28;20029;-79
2024/03/20 10:21:06;;;;;;;11.43;6.65;;;;;;;24.40;38.79;101030.16;5030227;28;20056;-81